sensor_id;sensor_type;location;lat;lon;timestamp;pressure;altitude;pressure_sealevel;temperature;humidity
31044;BME280;17710;52.520;13.352;2022-10-16T00:02:18;100805.50;;;20.27;60.38
31044;BME280;17710;52.520;13.352;2022-10-16T00:04:44;100800.81;;;20.42;60.35
31044;BME280;17710;52.520;13.352;2022-10-16T00:07:11;100801.69;;;20.42;60.32
31044;BME280;17710;52.520;13.352;2022-10-16T00:09:37;100802.28;;;20.35;60.25
31044;BME280;17710;52.520;13.352;2022-10-16T00:12:04;100807.59;;;20.47;60.11
31044;BME280;17710;52.520;13.352;2022-10-16T00:14:33;100811.78;;;20.15;61.00
31044;BME280;17710;52.520;13.352;2022-10-16T00:16:59;100811.13;;;20.48;59.95
31044;BME280;17710;52.520;13.352;2022-10-16T00:19:26;100812.81;;;20.25;60.69
31044;BME280;17710;52.520;13.352;2022-10-16T00:21:52;100813.84;;;20.59;59.62
31044;BME280;17710;52.520;13.352;2022-10-16T00:24:18;100814.38;;;20.40;60.40
31044;BME280;17710;52.520;13.352;2022-10-16T00:26:45;100811.56;;;20.42;60.29
31044;BME280;17710;52.520;13.352;2022-10-16T00:29:15;100819.91;;;20.50;59.88
31044;BME280;17710;52.520;13.352;2022-10-16T00:31:43;100819.44;;;20.56;59.95
31044;BME280;17710;52.520;13.352;2022-10-16T00:34:09;100822.94;;;20.45;60.17
31044;BME280;17710;52.520;13.352;2022-10-16T00:36:36;100830.63;;;20.50;60.12
31044;BME280;17710;52.520;13.352;2022-10-16T00:39:02;100833.88;;;20.42;60.38
31044;BME280;17710;52.520;13.352;2022-10-16T00:41:29;100835.47;;;20.34;60.51
31044;BME280;17710;52.520;13.352;2022-10-16T00:43:57;100832.66;;;20.22;61.00
31044;BME280;17710;52.520;13.352;2022-10-16T00:46:25;100827.66;;;20.42;60.71
31044;BME280;17710;52.520;13.352;2022-10-16T00:48:57;100827.16;;;20.37;60.69
31044;BME280;17710;52.520;13.352;2022-10-16T00:51:30;100829.78;;;20.49;60.16
31044;BME280;17710;52.520;13.352;2022-10-16T00:53:59;100829.19;;;20.57;59.90
31044;BME280;17710;52.520;13.352;2022-10-16T00:56:26;100830.69;;;20.61;59.83
31044;BME280;17710;52.520;13.352;2022-10-16T00:58:52;100839.78;;;20.47;60.17
31044;BME280;17710;52.520;13.352;2022-10-16T01:01:19;100845.94;;;20.37;60.78
31044;BME280;17710;52.520;13.352;2022-10-16T01:03:45;100851.31;;;20.37;60.61
31044;BME280;17710;52.520;13.352;2022-10-16T01:06:21;100842.06;;;20.41;60.49
31044;BME280;17710;52.520;13.352;2022-10-16T01:08:59;100843.63;;;20.19;61.23
31044;BME280;17710;52.520;13.352;2022-10-16T01:11:32;100844.69;;;20.17;61.36
31044;BME280;17710;52.520;13.352;2022-10-16T01:14:03;100839.34;;;20.17;61.71
31044;BME280;17710;52.520;13.352;2022-10-16T01:16:43;100841.72;;;20.09;61.76
31044;BME280;17710;52.520;13.352;2022-10-16T01:19:17;100848.19;;;20.06;61.81
31044;BME280;17710;52.520;13.352;2022-10-16T01:21:47;100847.28;;;20.18;61.33
31044;BME280;17710;52.520;13.352;2022-10-16T01:24:27;100849.22;;;20.16;61.62
31044;BME280;17710;52.520;13.352;2022-10-16T01:27:09;100852.16;;;20.37;60.87
31044;BME280;17710;52.520;13.352;2022-10-16T01:29:40;100852.19;;;20.24;61.22
31044;BME280;17710;52.520;13.352;2022-10-16T01:32:14;100853.66;;;20.28;61.15
31044;BME280;17710;52.520;13.352;2022-10-16T01:34:48;100864.50;;;20.40;60.61
31044;BME280;17710;52.520;13.352;2022-10-16T01:37:25;100864.13;;;20.33;60.83
31044;BME280;17710;52.520;13.352;2022-10-16T01:39:57;100862.47;;;20.30;61.23
31044;BME280;17710;52.520;13.352;2022-10-16T01:42:30;100865.84;;;20.34;60.95
31044;BME280;17710;52.520;13.352;2022-10-16T01:45:00;100866.09;;;20.42;60.67
31044;BME280;17710;52.520;13.352;2022-10-16T01:47:30;100870.47;;;20.19;61.29
31044;BME280;17710;52.520;13.352;2022-10-16T01:49:58;100861.31;;;20.35;61.05
31044;BME280;17710;52.520;13.352;2022-10-16T01:52:27;100867.72;;;20.45;60.80
31044;BME280;17710;52.520;13.352;2022-10-16T01:54:56;100863.09;;;20.47;60.69
31044;BME280;17710;52.520;13.352;2022-10-16T01:57:24;100868.13;;;20.02;62.07
31044;BME280;17710;52.520;13.352;2022-10-16T01:59:56;100873.19;;;20.30;61.36
31044;BME280;17710;52.520;13.352;2022-10-16T02:02:26;100872.97;;;20.46;60.55
31044;BME280;17710;52.520;13.352;2022-10-16T02:04:57;100874.75;;;20.35;60.99
31044;BME280;17710;52.520;13.352;2022-10-16T02:07:24;100880.75;;;20.25;61.10
31044;BME280;17710;52.520;13.352;2022-10-16T02:09:51;100883.91;;;20.43;60.66
31044;BME280;17710;52.520;13.352;2022-10-16T02:12:22;100885.03;;;20.41;60.71
31044;BME280;17710;52.520;13.352;2022-10-16T02:14:50;100891.41;;;20.51;60.48
31044;BME280;17710;52.520;13.352;2022-10-16T02:17:18;100892.31;;;20.39;60.94
31044;BME280;17710;52.520;13.352;2022-10-16T02:19:46;100896.34;;;20.20;61.26
31044;BME280;17710;52.520;13.352;2022-10-16T02:22:17;100908.31;;;20.40;60.74
31044;BME280;17710;52.520;13.352;2022-10-16T02:24:50;100907.50;;;20.51;60.14
31044;BME280;17710;52.520;13.352;2022-10-16T02:27:24;100902.13;;;20.51;60.21
31044;BME280;17710;52.520;13.352;2022-10-16T02:29:54;100900.13;;;20.42;60.29
31044;BME280;17710;52.520;13.352;2022-10-16T02:32:28;100901.53;;;20.47;60.26
31044;BME280;17710;52.520;13.352;2022-10-16T02:34:57;100904.13;;;20.23;60.97
31044;BME280;17710;52.520;13.352;2022-10-16T02:37:25;100903.59;;;20.67;59.59
31044;BME280;17710;52.520;13.352;2022-10-16T02:39:53;100910.84;;;20.42;60.45
31044;BME280;17710;52.520;13.352;2022-10-16T02:42:20;100912.94;;;20.38;60.83
31044;BME280;17710;52.520;13.352;2022-10-16T02:44:47;100911.97;;;20.63;59.93
31044;BME280;17710;52.520;13.352;2022-10-16T02:47:13;100908.25;;;20.53;59.98
31044;BME280;17710;52.520;13.352;2022-10-16T02:49:41;100911.09;;;20.39;60.85
31044;BME280;17710;52.520;13.352;2022-10-16T02:52:07;100916.41;;;20.51;60.22
31044;BME280;17710;52.520;13.352;2022-10-16T02:54:33;100913.78;;;20.39;60.52
31044;BME280;17710;52.520;13.352;2022-10-16T02:57:00;100911.84;;;20.41;60.72
31044;BME280;17710;52.520;13.352;2022-10-16T02:59:27;100911.25;;;20.48;60.31
31044;BME280;17710;52.520;13.352;2022-10-16T03:01:53;100906.69;;;20.38;60.90
31044;BME280;17710;52.520;13.352;2022-10-16T03:04:19;100915.84;;;20.22;61.09
31044;BME280;17710;52.520;13.352;2022-10-16T03:06:48;100910.66;;;20.32;61.11
31044;BME280;17710;52.520;13.352;2022-10-16T03:09:14;100923.06;;;20.09;61.34
31044;BME280;17710;52.520;13.352;2022-10-16T03:11:41;100917.09;;;20.29;61.02
31044;BME280;17710;52.520;13.352;2022-10-16T03:14:07;100917.09;;;20.29;60.75
31044;BME280;17710;52.520;13.352;2022-10-16T03:16:34;100928.63;;;20.19;61.43
31044;BME280;17710;52.520;13.352;2022-10-16T03:19:00;100924.16;;;20.07;61.51
31044;BME280;17710;52.520;13.352;2022-10-16T03:21:27;100927.97;;;20.15;61.20
31044;BME280;17710;52.520;13.352;2022-10-16T03:23:55;100929.28;;;20.10;61.79
31044;BME280;17710;52.520;13.352;2022-10-16T03:26:21;100932.00;;;19.97;62.14
31044;BME280;17710;52.520;13.352;2022-10-16T03:28:48;100929.38;;;20.34;60.88
31044;BME280;17710;52.520;13.352;2022-10-16T03:31:14;100941.75;;;19.98;61.87
31044;BME280;17710;52.520;13.352;2022-10-16T03:33:41;100938.66;;;19.79;62.63
31044;BME280;17710;52.520;13.352;2022-10-16T03:36:07;100943.69;;;19.96;62.21
31044;BME280;17710;52.520;13.352;2022-10-16T03:38:34;100945.16;;;20.13;61.61
31044;BME280;17710;52.520;13.352;2022-10-16T03:41:01;100948.00;;;19.86;62.34
31044;BME280;17710;52.520;13.352;2022-10-16T03:43:29;100954.84;;;19.90;62.25
31044;BME280;17710;52.520;13.352;2022-10-16T03:45:55;100963.31;;;19.84;62.83
31044;BME280;17710;52.520;13.352;2022-10-16T03:48:21;100953.97;;;20.15;61.46
31044;BME280;17710;52.520;13.352;2022-10-16T03:50:48;100972.47;;;19.81;62.67
31044;BME280;17710;52.520;13.352;2022-10-16T03:53:15;100975.88;;;19.83;62.78
31044;BME280;17710;52.520;13.352;2022-10-16T03:55:42;100978.13;;;20.15;61.85
31044;BME280;17710;52.520;13.352;2022-10-16T03:58:11;100980.22;;;20.22;61.57
31044;BME280;17710;52.520;13.352;2022-10-16T04:00:40;100985.22;;;19.90;62.06
31044;BME280;17710;52.520;13.352;2022-10-16T04:03:06;100984.91;;;19.95;62.58
31044;BME280;17710;52.520;13.352;2022-10-16T04:05:33;100978.53;;;19.96;62.15
31044;BME280;17710;52.520;13.352;2022-10-16T04:07:59;100985.09;;;19.92;62.33
31044;BME280;17710;52.520;13.352;2022-10-16T04:10:25;100991.53;;;20.02;62.31
31044;BME280;17710;52.520;13.352;2022-10-16T04:12:52;100997.88;;;20.01;62.01
31044;BME280;17710;52.520;13.352;2022-10-16T04:15:22;100993.91;;;19.94;62.30
31044;BME280;17710;52.520;13.352;2022-10-16T04:17:48;100990.28;;;19.95;62.41
31044;BME280;17710;52.520;13.352;2022-10-16T04:20:15;100995.19;;;19.76;62.71
31044;BME280;17710;52.520;13.352;2022-10-16T04:22:41;101000.34;;;19.79;62.46
31044;BME280;17710;52.520;13.352;2022-10-16T04:25:10;100996.91;;;19.77;62.89
31044;BME280;17710;52.520;13.352;2022-10-16T04:27:37;100994.34;;;19.75;62.89
31044;BME280;17710;52.520;13.352;2022-10-16T04:30:05;100989.28;;;19.71;63.07
31044;BME280;17710;52.520;13.352;2022-10-16T04:32:33;100972.75;;;19.77;62.73
31044;BME280;17710;52.520;13.352;2022-10-16T04:35:00;100978.78;;;19.93;62.39
31044;BME280;17710;52.520;13.352;2022-10-16T04:37:26;100974.06;;;19.71;62.53
31044;BME280;17710;52.520;13.352;2022-10-16T04:39:53;100978.66;;;19.69;62.57
31044;BME280;17710;52.520;13.352;2022-10-16T04:42:20;100974.06;;;19.71;62.65
31044;BME280;17710;52.520;13.352;2022-10-16T04:44:46;100981.88;;;20.00;61.74
31044;BME280;17710;52.520;13.352;2022-10-16T04:47:13;100961.50;;;19.97;62.07
31044;BME280;17710;52.520;13.352;2022-10-16T04:49:41;100961.28;;;20.00;61.85
31044;BME280;17710;52.520;13.352;2022-10-16T04:52:07;100974.81;;;19.73;62.32
31044;BME280;17710;52.520;13.352;2022-10-16T04:54:34;100971.38;;;19.46;63.46
31044;BME280;17710;52.520;13.352;2022-10-16T04:57:01;100963.00;;;19.76;62.46
31044;BME280;17710;52.520;13.352;2022-10-16T04:59:27;100966.00;;;19.71;62.59
31044;BME280;17710;52.520;13.352;2022-10-16T05:01:53;100978.88;;;19.79;62.41
31044;BME280;17710;52.520;13.352;2022-10-16T05:04:20;100982.63;;;19.64;62.88
31044;BME280;17710;52.520;13.352;2022-10-16T05:06:48;100992.38;;;19.65;62.81
31044;BME280;17710;52.520;13.352;2022-10-16T05:09:15;101005.47;;;19.69;62.30
31044;BME280;17710;52.520;13.352;2022-10-16T05:11:41;101014.78;;;19.64;62.40
31044;BME280;17710;52.520;13.352;2022-10-16T05:14:08;101016.75;;;19.62;62.73
31044;BME280;17710;52.520;13.352;2022-10-16T05:16:34;101020.81;;;19.55;63.17
31044;BME280;17710;52.520;13.352;2022-10-16T05:19:01;101009.81;;;19.45;63.59
31044;BME280;17710;52.520;13.352;2022-10-16T05:21:27;101014.69;;;19.65;62.83
31044;BME280;17710;52.520;13.352;2022-10-16T05:23:55;101019.75;;;19.43;63.51
31044;BME280;17710;52.520;13.352;2022-10-16T05:26:21;101013.22;;;19.61;62.85
31044;BME280;17710;52.520;13.352;2022-10-16T05:28:49;101009.56;;;19.75;62.78
31044;BME280;17710;52.520;13.352;2022-10-16T05:31:16;101002.47;;;19.61;62.96
31044;BME280;17710;52.520;13.352;2022-10-16T05:33:45;101001.09;;;19.56;63.20
31044;BME280;17710;52.520;13.352;2022-10-16T05:36:12;101008.00;;;19.45;63.07
31044;BME280;17710;52.520;13.352;2022-10-16T05:38:39;101013.41;;;19.71;62.71
31044;BME280;17710;52.520;13.352;2022-10-16T05:41:07;101025.00;;;19.84;62.42
31044;BME280;17710;52.520;13.352;2022-10-16T05:43:33;101037.78;;;19.93;61.84
31044;BME280;17710;52.520;13.352;2022-10-16T05:46:03;101033.88;;;19.46;63.30
31044;BME280;17710;52.520;13.352;2022-10-16T05:48:31;101037.78;;;19.68;63.00
31044;BME280;17710;52.520;13.352;2022-10-16T05:50:58;101034.53;;;19.63;62.83
31044;BME280;17710;52.520;13.352;2022-10-16T05:53:27;101033.47;;;19.38;63.71
31044;BME280;17710;52.520;13.352;2022-10-16T05:55:54;101033.13;;;19.70;62.34
31044;BME280;17710;52.520;13.352;2022-10-16T05:58:23;101025.41;;;19.65;62.55
31044;BME280;17710;52.520;13.352;2022-10-16T06:00:54;101030.78;;;19.65;62.66
31044;BME280;17710;52.520;13.352;2022-10-16T06:03:21;101030.38;;;19.84;62.17
31044;BME280;17710;52.520;13.352;2022-10-16T06:05:48;101028.34;;;19.62;62.48
31044;BME280;17710;52.520;13.352;2022-10-16T06:08:19;101027.78;;;19.82;61.92
31044;BME280;17710;52.520;13.352;2022-10-16T06:10:46;101040.66;;;20.03;61.17
31044;BME280;17710;52.520;13.352;2022-10-16T06:13:14;101045.16;;;20.02;61.05
31044;BME280;17710;52.520;13.352;2022-10-16T06:15:42;101046.00;;;19.65;62.53
31044;BME280;17710;52.520;13.352;2022-10-16T06:18:09;101051.63;;;19.87;61.71
31044;BME280;17710;52.520;13.352;2022-10-16T06:20:36;101052.59;;;19.86;62.03
31044;BME280;17710;52.520;13.352;2022-10-16T06:23:03;101051.53;;;20.01;61.18
31044;BME280;17710;52.520;13.352;2022-10-16T06:25:30;101053.13;;;20.04;61.31
31044;BME280;17710;52.520;13.352;2022-10-16T06:27:56;101049.47;;;20.05;60.99
31044;BME280;17710;52.520;13.352;2022-10-16T06:30:23;101061.69;;;20.09;60.76
31044;BME280;17710;52.520;13.352;2022-10-16T06:32:51;101057.53;;;20.05;60.69
31044;BME280;17710;52.520;13.352;2022-10-16T06:35:17;101066.44;;;20.05;60.75
31044;BME280;17710;52.520;13.352;2022-10-16T06:37:44;101071.69;;;20.19;60.43
31044;BME280;17710;52.520;13.352;2022-10-16T06:40:10;101077.25;;;20.16;60.89
31044;BME280;17710;52.520;13.352;2022-10-16T06:42:36;101077.91;;;20.20;60.42
31044;BME280;17710;52.520;13.352;2022-10-16T06:45:04;101089.19;;;20.38;59.91
31044;BME280;17710;52.520;13.352;2022-10-16T06:47:30;101082.53;;;20.18;60.38
31044;BME280;17710;52.520;13.352;2022-10-16T06:49:58;101098.19;;;20.11;60.76
31044;BME280;17710;52.520;13.352;2022-10-16T06:52:27;101087.72;;;20.34;60.16
31044;BME280;17710;52.520;13.352;2022-10-16T06:54:54;101087.03;;;20.43;59.98
31044;BME280;17710;52.520;13.352;2022-10-16T06:57:20;101093.25;;;20.05;61.02
31044;BME280;17710;52.520;13.352;2022-10-16T06:59:46;101093.25;;;19.93;61.70
31044;BME280;17710;52.520;13.352;2022-10-16T07:02:13;101103.25;;;20.54;60.04
31044;BME280;17710;52.520;13.352;2022-10-16T07:04:40;101096.25;;;20.64;59.98
31044;BME280;17710;52.520;13.352;2022-10-16T07:07:08;101107.94;;;20.63;59.40
31044;BME280;17710;52.520;13.352;2022-10-16T07:09:34;101107.78;;;20.90;59.00
31044;BME280;17710;52.520;13.352;2022-10-16T07:12:01;101117.53;;;20.67;59.52
31044;BME280;17710;52.520;13.352;2022-10-16T07:14:27;101128.59;;;21.12;58.40
31044;BME280;17710;52.520;13.352;2022-10-16T07:16:55;101122.78;;;21.18;57.88
31044;BME280;17710;52.520;13.352;2022-10-16T07:19:21;101126.34;;;21.05;57.99
31044;BME280;17710;52.520;13.352;2022-10-16T07:21:48;101121.06;;;21.17;57.87
31044;BME280;17710;52.520;13.352;2022-10-16T07:24:16;101119.25;;;21.04;58.15
31044;BME280;17710;52.520;13.352;2022-10-16T07:26:44;101120.63;;;21.23;57.93
31044;BME280;17710;52.520;13.352;2022-10-16T07:29:12;101121.25;;;21.26;57.90
31044;BME280;17710;52.520;13.352;2022-10-16T07:31:39;101116.09;;;21.47;57.20
31044;BME280;17710;52.520;13.352;2022-10-16T07:34:06;101114.97;;;21.38;57.28
31044;BME280;17710;52.520;13.352;2022-10-16T07:36:32;101102.09;;;21.31;57.74
31044;BME280;17710;52.520;13.352;2022-10-16T07:38:59;101113.91;;;21.28;57.85
31044;BME280;17710;52.520;13.352;2022-10-16T07:41:27;101124.47;;;21.31;57.66
31044;BME280;17710;52.520;13.352;2022-10-16T07:43:54;101124.81;;;21.51;57.15
31044;BME280;17710;52.520;13.352;2022-10-16T07:46:23;101130.75;;;21.19;57.42
31044;BME280;17710;52.520;13.352;2022-10-16T07:48:50;101124.16;;;21.47;57.34
31044;BME280;17710;52.520;13.352;2022-10-16T07:51:18;101116.09;;;21.47;57.37
31044;BME280;17710;52.520;13.352;2022-10-16T07:53:45;101129.59;;;21.34;57.53
31044;BME280;17710;52.520;13.352;2022-10-16T07:56:13;101121.25;;;21.14;58.23
31044;BME280;17710;52.520;13.352;2022-10-16T07:58:41;101117.72;;;21.26;58.01
31044;BME280;17710;52.520;13.352;2022-10-16T08:01:10;101127.47;;;21.27;57.94
31044;BME280;17710;52.520;13.352;2022-10-16T08:03:38;101140.81;;;21.28;58.00
31044;BME280;17710;52.520;13.352;2022-10-16T08:06:07;101148.50;;;21.45;57.74
31044;BME280;17710;52.520;13.352;2022-10-16T08:08:34;101160.31;;;21.43;57.76
31044;BME280;17710;52.520;13.352;2022-10-16T08:11:01;101158.19;;;21.35;57.90
31044;BME280;17710;52.520;13.352;2022-10-16T08:13:29;101169.94;;;21.58;57.35
31044;BME280;17710;52.520;13.352;2022-10-16T08:15:57;101169.22;;;21.67;56.61
31044;BME280;17710;52.520;13.352;2022-10-16T08:18:24;101168.56;;;21.76;56.93
31044;BME280;17710;52.520;13.352;2022-10-16T08:20:55;101147.22;;;21.62;57.17
31044;BME280;17710;52.520;13.352;2022-10-16T08:23:22;101156.06;;;21.75;56.78
31044;BME280;17710;52.520;13.352;2022-10-16T08:25:51;101156.66;;;21.68;56.86
31044;BME280;17710;52.520;13.352;2022-10-16T08:28:17;101163.69;;;21.81;56.74
31044;BME280;17710;52.520;13.352;2022-10-16T08:30:44;101155.72;;;21.80;56.66
31044;BME280;17710;52.520;13.352;2022-10-16T08:33:12;101168.44;;;21.78;57.00
31044;BME280;17710;52.520;13.352;2022-10-16T08:35:38;101168.31;;;21.79;56.77
31044;BME280;17710;52.520;13.352;2022-10-16T08:38:05;101177.25;;;21.56;57.41
31044;BME280;17710;52.520;13.352;2022-10-16T08:40:36;101168.97;;;21.59;57.47
31044;BME280;17710;52.520;13.352;2022-10-16T08:43:16;101168.06;;;21.71;57.06
31044;BME280;17710;52.520;13.352;2022-10-16T08:45:57;101165.03;;;21.87;56.82
31044;BME280;17710;52.520;13.352;2022-10-16T08:48:34;101170.09;;;21.92;56.49
31044;BME280;17710;52.520;13.352;2022-10-16T08:51:02;101162.94;;;22.03;56.06
31044;BME280;17710;52.520;13.352;2022-10-16T08:53:36;101169.31;;;21.78;56.70
31044;BME280;17710;52.520;13.352;2022-10-16T08:56:07;101169.56;;;21.86;56.92
31044;BME280;17710;52.520;13.352;2022-10-16T08:58:33;101182.91;;;22.12;55.90
31044;BME280;17710;52.520;13.352;2022-10-16T09:01:01;101184.56;;;22.02;55.71
31044;BME280;17710;52.520;13.352;2022-10-16T09:03:43;101193.22;;;22.18;55.35
31044;BME280;17710;52.520;13.352;2022-10-16T09:06:30;101192.38;;;22.40;55.06
31044;BME280;17710;52.520;13.352;2022-10-16T09:09:16;101207.56;;;22.41;54.65
31044;BME280;17710;52.520;13.352;2022-10-16T09:11:50;101204.78;;;22.53;54.16
31044;BME280;17710;52.520;13.352;2022-10-16T09:14:34;101205.25;;;22.36;54.77
31044;BME280;17710;52.520;13.352;2022-10-16T09:17:17;101210.16;;;22.42;54.58
31044;BME280;17710;52.520;13.352;2022-10-16T09:19:51;101205.84;;;22.40;54.64
31044;BME280;17710;52.520;13.352;2022-10-16T09:22:21;101207.34;;;22.55;54.51
31044;BME280;17710;52.520;13.352;2022-10-16T09:24:51;101200.41;;;22.63;54.20
31044;BME280;17710;52.520;13.352;2022-10-16T09:27:18;101205.03;;;22.61;54.11
31044;BME280;17710;52.520;13.352;2022-10-16T09:29:44;101200.81;;;22.35;54.75
31044;BME280;17710;52.520;13.352;2022-10-16T09:32:12;101204.28;;;22.37;54.45
31044;BME280;17710;52.520;13.352;2022-10-16T09:34:43;101199.13;;;22.45;54.41
31044;BME280;17710;52.520;13.352;2022-10-16T09:37:13;101213.69;;;22.32;55.05
31044;BME280;17710;52.520;13.352;2022-10-16T09:39:44;101211.09;;;22.30;54.87
31044;BME280;17710;52.520;13.352;2022-10-16T09:42:17;101221.09;;;22.17;55.20
31044;BME280;17710;52.520;13.352;2022-10-16T09:44:47;101218.72;;;22.58;54.53
31044;BME280;17710;52.520;13.352;2022-10-16T09:47:17;101214.09;;;22.60;53.71
31044;BME280;17710;52.520;13.352;2022-10-16T09:49:52;101228.78;;;22.67;53.35
31044;BME280;17710;52.520;13.352;2022-10-16T09:52:21;101236.03;;;22.67;53.37
31044;BME280;17710;52.520;13.352;2022-10-16T09:54:50;101235.94;;;22.80;53.35
31044;BME280;17710;52.520;13.352;2022-10-16T09:57:17;101238.53;;;22.46;53.77
31044;BME280;17710;52.520;13.352;2022-10-16T09:59:46;101239.31;;;22.59;53.58
31044;BME280;17710;52.520;13.352;2022-10-16T10:02:14;101239.59;;;22.79;53.16
31044;BME280;17710;52.520;13.352;2022-10-16T10:04:48;101239.03;;;23.20;52.32
31044;BME280;17710;52.520;13.352;2022-10-16T10:07:18;101239.13;;;23.18;51.85
31044;BME280;17710;52.520;13.352;2022-10-16T10:09:48;101255.81;;;23.12;51.84
31044;BME280;17710;52.520;13.352;2022-10-16T10:12:18;101253.09;;;23.12;52.07
31044;BME280;17710;52.520;13.352;2022-10-16T10:14:47;101251.63;;;23.19;51.44
31044;BME280;17710;52.520;13.352;2022-10-16T10:17:16;101247.84;;;22.88;51.86
31044;BME280;17710;52.520;13.352;2022-10-16T10:19:48;101253.75;;;22.58;52.13
31044;BME280;17710;52.520;13.352;2022-10-16T10:22:27;101260.56;;;22.86;51.98
31044;BME280;17710;52.520;13.352;2022-10-16T10:25:10;101255.06;;;22.77;51.84
31044;BME280;17710;52.520;13.352;2022-10-16T10:27:47;101257.19;;;22.60;52.26
31044;BME280;17710;52.520;13.352;2022-10-16T10:30:21;101262.19;;;22.65;51.82
31044;BME280;17710;52.520;13.352;2022-10-16T10:33:12;101266.00;;;22.62;51.89
31044;BME280;17710;52.520;13.352;2022-10-16T10:35:45;101269.41;;;22.88;51.31
31044;BME280;17710;52.520;13.352;2022-10-16T10:38:27;101280.91;;;22.90;50.88
31044;BME280;17710;52.520;13.352;2022-10-16T10:41:09;101286.44;;;22.54;51.58
31044;BME280;17710;52.520;13.352;2022-10-16T10:43:56;101280.44;;;23.08;50.32
31044;BME280;17710;52.520;13.352;2022-10-16T10:46:32;101281.16;;;22.98;50.20
31044;BME280;17710;52.520;13.352;2022-10-16T10:49:09;101266.59;;;23.01;50.42
31044;BME280;17710;52.520;13.352;2022-10-16T10:51:48;101272.84;;;23.35;49.54
31044;BME280;17710;52.520;13.352;2022-10-16T10:54:27;101271.47;;;23.40;49.06
31044;BME280;17710;52.520;13.352;2022-10-16T10:57:10;101284.47;;;23.47;49.10
31044;BME280;17710;52.520;13.352;2022-10-16T10:59:57;101277.09;;;23.71;48.38
31044;BME280;17710;52.520;13.352;2022-10-16T11:02:36;101272.78;;;24.22;47.10
31044;BME280;17710;52.520;13.352;2022-10-16T11:05:33;101266.50;;;24.33;46.67
31044;BME280;17710;52.520;13.352;2022-10-16T11:08:09;101275.59;;;24.53;45.66
31044;BME280;17710;52.520;13.352;2022-10-16T11:10:44;101282.41;;;24.04;46.80
31044;BME280;17710;52.520;13.352;2022-10-16T11:13:23;101285.13;;;24.36;46.36
31044;BME280;17710;52.520;13.352;2022-10-16T11:15:59;101281.91;;;24.21;46.27
31044;BME280;17710;52.520;13.352;2022-10-16T11:18:33;101277.66;;;24.29;45.71
31044;BME280;17710;52.520;13.352;2022-10-16T11:21:10;101273.53;;;24.25;45.33
31044;BME280;17710;52.520;13.352;2022-10-16T11:23:43;101278.56;;;24.18;45.67
31044;BME280;17710;52.520;13.352;2022-10-16T11:26:16;101268.72;;;24.17;46.31
31044;BME280;17710;52.520;13.352;2022-10-16T11:28:49;101280.50;;;23.95;46.05
31044;BME280;17710;52.520;13.352;2022-10-16T11:31:23;101279.28;;;23.77;46.22
31044;BME280;17710;52.520;13.352;2022-10-16T11:33:56;101275.78;;;23.54;46.57
31044;BME280;17710;52.520;13.352;2022-10-16T11:36:33;101281.69;;;23.48;46.59
31044;BME280;17710;52.520;13.352;2022-10-16T11:39:09;101280.81;;;23.59;46.52
31044;BME280;17710;52.520;13.352;2022-10-16T11:41:44;101283.16;;;23.52;46.80
31044;BME280;17710;52.520;13.352;2022-10-16T11:44:33;101277.25;;;23.58;46.54
31044;BME280;17710;52.520;13.352;2022-10-16T11:47:08;101278.13;;;23.48;46.22
31044;BME280;17710;52.520;13.352;2022-10-16T11:49:39;101276.75;;;23.42;46.06
31044;BME280;17710;52.520;13.352;2022-10-16T11:52:11;101279.59;;;23.29;46.15
31044;BME280;17710;52.520;13.352;2022-10-16T11:54:45;101274.66;;;23.12;46.20
31044;BME280;17710;52.520;13.352;2022-10-16T11:57:17;101283.47;;;22.92;46.53
31044;BME280;17710;52.520;13.352;2022-10-16T11:59:48;101291.09;;;23.09;46.29
31044;BME280;17710;52.520;13.352;2022-10-16T12:02:30;101285.41;;;22.79;45.62
31044;BME280;17710;52.520;13.352;2022-10-16T12:05:09;101292.78;;;22.88;45.66
31044;BME280;17710;52.520;13.352;2022-10-16T12:07:43;101291.94;;;22.87;45.62
31044;BME280;17710;52.520;13.352;2022-10-16T12:10:21;101299.34;;;22.73;45.09
31044;BME280;17710;52.520;13.352;2022-10-16T12:12:48;101314.09;;;22.91;45.02
31044;BME280;17710;52.520;13.352;2022-10-16T12:15:22;101315.44;;;22.50;45.74
31044;BME280;17710;52.520;13.352;2022-10-16T12:17:49;101308.47;;;23.05;44.98
31044;BME280;17710;52.520;13.352;2022-10-16T12:20:22;101314.00;;;23.37;44.17
31044;BME280;17710;52.520;13.352;2022-10-16T12:22:52;101316.22;;;23.32;44.20
31044;BME280;17710;52.520;13.352;2022-10-16T12:25:27;101316.63;;;23.50;43.65
31044;BME280;17710;52.520;13.352;2022-10-16T12:27:59;101315.63;;;23.62;43.00
31044;BME280;17710;52.520;13.352;2022-10-16T12:30:29;101315.63;;;23.73;42.73
31044;BME280;17710;52.520;13.352;2022-10-16T12:32:57;101331.81;;;23.62;42.36
31044;BME280;17710;52.520;13.352;2022-10-16T12:35:26;101322.97;;;23.26;42.98
31044;BME280;17710;52.520;13.352;2022-10-16T12:37:53;101322.41;;;23.56;42.82
31044;BME280;17710;52.520;13.352;2022-10-16T12:40:27;101326.19;;;23.76;41.85
31044;BME280;17710;52.520;13.352;2022-10-16T12:42:54;101330.81;;;23.85;42.48
31044;BME280;17710;52.520;13.352;2022-10-16T12:45:26;101326.28;;;23.74;41.74
31044;BME280;17710;52.520;13.352;2022-10-16T12:47:55;101327.09;;;23.97;41.44
31044;BME280;17710;52.520;13.352;2022-10-16T12:50:25;101329.50;;;24.11;40.72
31044;BME280;17710;52.520;13.352;2022-10-16T12:52:52;101334.91;;;24.22;40.94
31044;BME280;17710;52.520;13.352;2022-10-16T12:55:21;101337.69;;;24.64;39.80